Time;durP1;ratioP1;P1;durP2;ratioP2;P2;SDS_P1;SDS_P2;PMS_P1;PMS_P2;Temp;Humidity;BMP_temperature;BMP_pressure;BME280_temperature;BME280_humidity;BME280_pressure;Samples;Min_cycle;Max_cycle;Signal;HPM_P1;HPM_P2
2021/01/16 00:04:15;;;;;;;26.08;9.88;;;-7.00;99.90;;;;;;21163401;28;20040;-79
2021/01/16 00:14:16;;;;;;;24.65;10.32;;;-7.40;99.90;;;;;;21163980;28;20683;-80
2021/01/16 00:24:17;;;;;;;25.98;10.38;;;-7.30;99.90;;;;;;21178793;28;20144;-80
2021/01/16 00:34:18;;;;;;;22.52;9.60;;;-7.20;99.90;;;;;;21180634;28;20028;-80
2021/01/16 00:44:18;;;;;;;25.38;10.48;;;-7.70;99.90;;;;;;21179040;28;20056;-77
2021/01/16 00:54:19;;;;;;;20.95;10.00;;;-7.60;99.90;;;;;;21159584;28;20051;-80
2021/01/16 01:04:20;;;;;;;27.98;9.80;;;-7.30;99.90;;;;;;21162258;28;20027;-81
2021/01/16 01:14:21;;;;;;;31.73;12.45;;;-7.30;99.90;;;;;;21165406;22;20036;-79
2021/01/16 01:24:22;;;;;;;31.05;10.95;;;-7.10;99.90;;;;;;21116309;28;20035;-79
2021/01/16 01:34:23;;;;;;;24.48;9.85;;;-7.30;99.90;;;;;;21115290;28;20149;-78
2021/01/16 01:44:23;;;;;;;26.25;9.90;;;-7.30;99.90;;;;;;21115520;28;20201;-79
2021/01/16 01:54:25;;;;;;;17.38;9.02;;;-7.20;99.90;;;;;;21119500;28;20032;-78
2021/01/16 02:04:30;;;;;;;22.65;9.85;;;-7.50;99.90;;;;;;21107071;28;20032;-79
2021/01/16 02:14:34;;;;;;;23.05;9.88;;;-7.30;99.90;;;;;;21113626;28;20053;-78
2021/01/16 02:24:42;;;;;;;30.10;12.13;;;-7.10;99.90;;;;;;21107596;28;20448;-79
2021/01/16 02:34:47;;;;;;;42.35;12.77;;;-6.80;99.90;;;;;;21100555;28;20028;-78
2021/01/16 02:45:05;;;;;;;44.38;12.70;;;-6.50;99.90;;;;;;21075501;28;20059;-78
2021/01/16 02:55:09;;;;;;;56.33;14.93;;;-6.50;99.90;;;;;;21099869;28;20059;-79
2021/01/16 03:05:10;;;;;;;75.85;15.77;;;-6.50;99.90;;;;;;21130746;28;20028;-79
2021/01/16 03:15:19;;;;;;;51.50;15.45;;;-6.60;99.90;;;;;;21130487;28;20078;-78
2021/01/16 03:25:22;;;;;;;46.03;14.93;;;-6.50;99.90;;;;;;21131379;28;20032;-79
2021/01/16 03:35:24;;;;;;;47.33;14.77;;;-6.40;99.90;;;;;;21124254;28;20054;-79
2021/01/16 03:45:25;;;;;;;53.30;13.23;;;-6.20;99.90;;;;;;21127103;28;20032;-78
2021/01/16 03:55:26;;;;;;;53.50;14.65;;;-6.20;99.90;;;;;;21125905;28;20046;-79
2021/01/16 04:05:27;;;;;;;52.03;15.00;;;-6.20;99.90;;;;;;21121426;28;20024;-79
2021/01/16 04:15:28;;;;;;;32.65;12.07;;;-6.10;99.90;;;;;;21105175;28;20040;-79
2021/01/16 04:25:28;;;;;;;38.42;13.90;;;-6.10;99.90;;;;;;21120774;28;20478;-77
2021/01/16 04:35:30;;;;;;;57.05;15.05;;;-6.10;99.90;;;;;;21121326;28;20028;-79
2021/01/16 04:45:33;;;;;;;39.35;13.38;;;-6.00;99.90;;;;;;21102924;28;20039;-79
2021/01/16 04:55:36;;;;;;;42.58;12.38;;;-5.80;99.90;;;;;;21118036;28;20040;-78
2021/01/16 05:05:41;;;;;;;50.63;13.88;;;-5.80;99.90;;;;;;21116759;28;20073;-79
2021/01/16 05:15:44;;;;;;;40.00;12.18;;;-5.70;99.90;;;;;;21115724;28;20050;-79
2021/01/16 05:25:49;;;;;;;35.80;12.73;;;-5.60;99.90;;;;;;21112092;28;20043;-79
2021/01/16 05:35:54;;;;;;;38.72;12.13;;;-5.60;99.90;;;;;;21110942;28;20032;-79
2021/01/16 05:46:00;;;;;;;38.60;13.30;;;-5.80;99.90;;;;;;21118269;28;20590;-79
2021/01/16 05:56:01;;;;;;;37.83;11.73;;;-6.00;99.90;;;;;;21122816;28;20096;-79
2021/01/16 06:06:08;;;;;;;34.97;11.35;;;-6.10;99.90;;;;;;21124603;28;20024;-79
2021/01/16 06:16:17;;;;;;;32.72;11.02;;;-5.90;99.90;;;;;;21116493;28;20028;-79
2021/01/16 06:26:20;;;;;;;40.73;12.60;;;-6.10;99.90;;;;;;21123646;28;20031;-79
2021/01/16 06:36:26;;;;;;;46.60;13.63;;;-6.20;99.90;;;;;;21119442;28;20486;-79
2021/01/16 06:46:46;;;;;;;36.03;12.90;;;-6.30;99.90;;;;;;21096619;28;20521;-79
2021/01/16 06:56:59;;;;;;;46.13;14.50;;;-6.20;99.90;;;;;;21114762;28;20043;-79
2021/01/16 07:07:04;;;;;;;25.25;10.05;;;-6.30;99.90;;;;;;21111623;28;20032;-78
2021/01/16 07:17:05;;;;;;;16.27;7.78;;;-6.60;99.90;;;;;;21201909;22;20054;-79
2021/01/16 07:27:08;;;;;;;17.83;7.95;;;-6.40;99.90;;;;;;21182969;28;20028;-78
2021/01/16 07:37:10;;;;;;;26.95;11.00;;;-6.10;99.90;;;;;;21170282;28;20389;-79
2021/01/16 07:47:20;;;;;;;14.85;7.25;;;-5.90;99.90;;;;;;21162100;28;20062;-79
2021/01/16 07:57:24;;;;;;;12.85;6.35;;;-5.70;99.90;;;;;;21178575;28;20038;-79
2021/01/16 08:08:00;;;;;;;16.02;6.88;;;-5.50;99.90;;;;;;21180870;28;20574;-79
2021/01/16 08:18:03;;;;;;;17.90;7.25;;;-5.30;99.90;;;;;;21164358;28;20443;-77
2021/01/16 08:28:05;;;;;;;18.42;8.88;;;-5.30;99.90;;;;;;21164484;28;20144;-78
2021/01/16 08:38:17;;;;;;;30.27;11.48;;;-5.40;99.90;;;;;;21167646;28;20069;-79
2021/01/16 08:48:23;;;;;;;26.73;10.50;;;-4.70;99.90;;;;;;21167573;28;20375;-79
2021/01/16 08:58:28;;;;;;;60.42;22.52;;;-5.00;99.90;;;;;;21169023;28;20038;-80
2021/01/16 09:08:29;;;;;;;38.42;14.68;;;-5.10;99.90;;;;;;21151696;28;20119;-79
2021/01/16 09:18:30;;;;;;;45.13;15.55;;;-4.30;99.90;;;;;;21164866;28;20035;-80
2021/01/16 09:28:53;;;;;;;52.33;16.30;;;-4.10;99.90;;;;;;21186300;28;20035;-80
2021/01/16 09:38:54;;;;;;;61.63;20.08;;;-3.30;99.90;;;;;;21208028;28;20030;-80
2021/01/16 09:48:55;;;;;;;45.47;16.70;;;-3.00;99.90;;;;;;21165308;28;20031;-79
2021/01/16 09:59:03;;;;;;;42.72;13.82;;;-2.80;99.90;;;;;;21159392;28;20031;-80
2021/01/16 10:09:19;;;;;;;119.00;31.50;;;-2.40;99.90;;;;;;21173173;28;20126;-79
2021/01/16 10:19:21;;;;;;;48.75;17.63;;;-2.10;99.90;;;;;;21175775;28;20084;-78
2021/01/16 10:29:38;;;;;;;40.10;18.15;;;-1.60;99.90;;;;;;21172756;28;20034;-80
2021/01/16 10:39:39;;;;;;;14.98;8.00;;;-1.10;99.90;;;;;;21142928;28;20127;-80
2021/01/16 10:49:50;;;;;;;18.33;9.10;;;-1.20;99.90;;;;;;21154003;28;20065;-80
2021/01/16 10:59:54;;;;;;;21.23;9.70;;;-1.80;99.90;;;;;;21132697;28;20035;-79
2021/01/16 11:10:07;;;;;;;18.83;9.02;;;-2.30;99.90;;;;;;21152865;28;20807;-78
2021/01/16 11:20:19;;;;;;;29.80;10.07;;;-2.50;99.90;;;;;;21150641;28;20042;-80
2021/01/16 11:30:21;;;;;;;23.58;10.55;;;-2.30;99.90;;;;;;21166833;28;20055;-80
2021/01/16 11:40:39;;;;;;;21.42;11.02;;;-1.60;99.90;;;;;;21129638;28;20043;-80
2021/01/16 11:50:39;;;;;;;27.67;11.55;;;-0.20;99.90;;;;;;21115041;28;20066;-78
2021/01/16 12:00:42;;;;;;;28.60;14.10;;;0.10;99.90;;;;;;21145299;28;20417;-78
2021/01/16 12:10:44;;;;;;;25.48;12.05;;;0.60;99.90;;;;;;21172525;28;20496;-79
2021/01/16 12:20:46;;;;;;;29.13;12.43;;;0.20;99.90;;;;;;21087359;28;20019;-77
2021/01/16 12:30:48;;;;;;;28.17;13.45;;;0.20;99.90;;;;;;21061907;28;20040;-78
2021/01/16 12:40:48;;;;;;;33.40;18.23;;;0.20;99.90;;;;;;21072885;28;20081;-79
2021/01/16 12:50:50;;;;;;;;;;;-0.10;99.90;;;;;;21070987;28;20036;-79
2021/01/16 13:00:52;;;;;;;20.17;9.43;;;0.40;99.90;;;;;;21070963;28;19915;-78
2021/01/16 13:10:54;;;;;;;23.15;10.70;;;0.20;99.90;;;;;;21056905;28;20031;-80
2021/01/16 13:20:59;;;;;;;30.80;12.35;;;-0.60;99.90;;;;;;20899472;23;20548;-81
2021/01/16 13:31:01;;;;;;;26.30;11.70;;;-0.60;99.90;;;;;;20896840;28;20056;-82
2021/01/16 13:41:04;;;;;;;26.25;11.00;;;-1.30;99.90;;;;;;20896288;28;20040;-82
2021/01/16 13:51:22;;;;;;;23.13;10.05;;;-1.40;99.90;;;;;;20879045;28;20071;-80
2021/01/16 14:01:33;;;;;;;25.40;10.82;;;-1.40;99.90;;;;;;20897944;28;20029;-83
2021/01/16 14:11:43;;;;;;;44.50;18.73;;;-1.60;99.90;;;;;;20842767;28;20041;-83
2021/01/16 14:21:55;;;;;;;26.77;12.63;;;-1.20;99.90;;;;;;20909511;28;20087;-80
2021/01/16 14:31:56;;;;;;;31.92;13.40;;;-0.90;99.90;;;;;;20907555;28;20033;-81
2021/01/16 14:41:57;;;;;;;66.25;29.23;;;-1.70;99.90;;;;;;20905944;28;20028;-83
2021/01/16 14:52:07;;;;;;;31.52;13.60;;;-1.70;99.90;;;;;;20905311;28;20045;-81
2021/01/16 15:02:19;;;;;;;87.27;33.57;;;-1.80;99.90;;;;;;20925159;28;20082;-80
2021/01/16 15:12:20;;;;;;;71.47;29.23;;;-2.60;99.90;;;;;;20936616;28;20096;-82
2021/01/16 15:22:26;;;;;;;31.50;14.80;;;-2.30;99.90;;;;;;20982433;28;20036;-82
2021/01/16 15:32:27;;;;;;;25.17;10.82;;;-2.10;99.90;;;;;;21041851;28;20039;-81
2021/01/16 15:42:30;;;;;;;35.97;15.07;;;-1.90;99.90;;;;;;21046630;28;20028;-81
2021/01/16 15:52:31;;;;;;;39.72;15.55;;;-1.90;99.90;;;;;;21050397;28;20058;-81
2021/01/16 16:02:35;;;;;;;34.65;13.65;;;-2.00;99.90;;;;;;21045888;28;20070;-81
2021/01/16 16:12:36;;;;;;;30.77;13.93;;;-2.50;99.90;;;;;;21025128;28;20041;-81
2021/01/16 16:22:37;;;;;;;35.28;15.88;;;-2.60;99.90;;;;;;21021639;28;20063;-80
2021/01/16 16:32:44;;;;;;;39.70;16.08;;;-2.80;99.90;;;;;;21019917;28;20467;-82
2021/01/16 16:42:46;;;;;;;37.33;16.05;;;-2.70;99.90;;;;;;21025462;28;20483;-79
2021/01/16 16:52:53;;;;;;;39.45;16.15;;;-2.60;99.90;;;;;;21012444;28;20093;-78
2021/01/16 17:02:54;;;;;;;36.58;16.17;;;-2.60;99.90;;;;;;21000032;28;20150;-80
2021/01/16 17:12:57;;;;;;;39.65;15.57;;;-2.50;99.90;;;;;;21006768;28;20490;-81
2021/01/16 17:22:58;;;;;;;33.33;14.50;;;-2.50;99.90;;;;;;21030894;28;20429;-79
2021/01/16 17:32:59;;;;;;;40.10;16.27;;;-2.60;99.90;;;;;;20958125;28;20037;-79
2021/01/16 17:43:02;;;;;;;35.78;15.23;;;-2.60;99.90;;;;;;20975312;28;20033;-80
2021/01/16 17:53:03;;;;;;;51.22;19.20;;;-2.60;99.90;;;;;;21071025;28;20115;-79
2021/01/16 18:03:05;;;;;;;44.55;17.58;;;-2.90;99.90;;;;;;21146910;28;20036;-79
2021/01/16 18:13:05;;;;;;;40.00;16.63;;;-2.90;99.90;;;;;;21144194;28;20040;-80
2021/01/16 18:23:06;;;;;;;41.67;17.75;;;-3.00;99.90;;;;;;21132668;28;20035;-81
2021/01/16 18:33:07;;;;;;;44.80;18.08;;;-3.00;99.90;;;;;;21134270;28;20042;-80
2021/01/16 18:43:09;;;;;;;40.30;17.55;;;-2.90;99.90;;;;;;21064335;28;20863;-79
2021/01/16 18:53:10;;;;;;;57.22;21.63;;;-3.20;99.90;;;;;;21027766;28;20028;-79
2021/01/16 19:03:11;;;;;;;52.28;20.77;;;-3.10;99.90;;;;;;21037731;28;20036;-80
2021/01/16 19:13:12;;;;;;;58.90;21.95;;;-3.30;99.90;;;;;;21037988;28;20079;-80
2021/01/16 19:23:13;;;;;;;69.45;25.63;;;-3.30;99.90;;;;;;21043642;28;20249;-80
2021/01/16 19:33:18;;;;;;;59.97;20.42;;;-3.20;99.90;;;;;;21031062;28;20032;-79
2021/01/16 19:43:18;;;;;;;49.40;19.73;;;-3.50;99.90;;;;;;21034124;28;20039;-79
2021/01/16 19:53:19;;;;;;;48.63;20.77;;;-3.50;99.90;;;;;;21046021;28;20684;-81
2021/01/16 20:03:22;;;;;;;52.60;20.35;;;-3.30;99.90;;;;;;21106072;28;20088;-80
2021/01/16 20:13:23;;;;;;;48.55;21.83;;;-3.40;99.90;;;;;;21125604;28;20035;-79
2021/01/16 20:23:24;;;;;;;64.53;23.13;;;-3.20;99.90;;;;;;21126187;28;20059;-80
2021/01/16 20:33:25;;;;;;;54.78;22.25;;;-3.20;99.90;;;;;;21134823;28;20036;-79
2021/01/16 20:43:26;;;;;;;52.80;20.65;;;-3.10;99.90;;;;;;21037423;28;20052;-79
2021/01/16 20:53:27;;;;;;;68.13;27.45;;;-3.10;99.90;;;;;;21032500;28;20030;-79
2021/01/16 21:03:28;;;;;;;63.95;26.00;;;-3.10;99.90;;;;;;21106407;28;20402;-81
2021/01/16 21:13:29;;;;;;;65.03;25.98;;;-3.40;99.90;;;;;;21123169;28;20067;-82
2021/01/16 21:23:31;;;;;;;61.08;23.95;;;-3.50;99.90;;;;;;21124100;28;20035;-81
2021/01/16 21:33:31;;;;;;;55.42;21.63;;;-3.60;99.90;;;;;;21126319;28;20032;-80
2021/01/16 21:43:32;;;;;;;44.38;18.67;;;-3.50;99.90;;;;;;21131034;28;20347;-79
2021/01/16 21:53:33;;;;;;;53.05;21.35;;;-3.40;99.90;;;;;;21105293;22;20063;-77
2021/01/16 22:03:34;;;;;;;57.40;20.85;;;-3.40;99.90;;;;;;21143872;28;20036;-77
2021/01/16 22:13:35;;;;;;;51.90;21.50;;;-3.40;99.90;;;;;;21130008;28;21025;-77
2021/01/16 22:23:36;;;;;;;64.68;22.45;;;-3.40;99.90;;;;;;21071864;28;20133;-77
2021/01/16 22:33:37;;;;;;;50.60;19.58;;;-3.40;99.90;;;;;;21120872;28;20039;-77
2021/01/16 22:43:38;;;;;;;52.17;20.02;;;-3.40;99.90;;;;;;21086276;28;20063;-78
2021/01/16 22:53:39;;;;;;;55.78;21.17;;;-3.30;99.90;;;;;;21053983;28;20564;-78
2021/01/16 23:03:40;;;;;;;61.05;22.15;;;-3.30;99.90;;;;;;21135845;28;20471;-77
2021/01/16 23:13:42;;;;;;;54.33;19.92;;;-3.30;99.90;;;;;;21083916;28;20133;-78
2021/01/16 23:23:43;;;;;;;59.03;23.00;;;-3.30;99.90;;;;;;21050946;28;20409;-79
2021/01/16 23:33:44;;;;;;;59.55;20.70;;;-3.30;99.90;;;;;;21051437;28;20043;-78
2021/01/16 23:43:45;;;;;;;55.22;20.90;;;-3.20;99.90;;;;;;21067147;28;20032;-77
2021/01/16 23:53:46;;;;;;;53.25;20.52;;;-3.20;99.90;;;;;;21055277;28;20655;-78
